ETSB

Buchel Airport

Germany
METAR ETSB 180120Z AUTO 32004KT 6000 // ////// 12/09 Q1022 ///
Observed Flight Rules
Aug-18 @ 01:20 UTC (an hour ago)
Wind Visibility
320° at 4 knots 6,003 meters
Temperatures Readings
Current 12°C / 54°F
Dewpoint 9°C / 48°F
Humidity 82%
Altimeter 30.18" Hg
Pressure 1022 hPa
Elevation 486
METAR ETSB 180120Z AUTO 32004KT 6000 // ////// 12/09 Q1022 ///
Observed Flight Rules
Aug-18 @ 01:20 UTC
(an hour ago)
Wind Visibility
320° at 4 knots 6,003 meters
Temperature Dewpoint
12°C / 54°F 9°C / 48°F
Humidity Altimeter Pressure
82% 30.18" Hg 1022 hPa